sensor_id;sensor_type;location;lat;lon;timestamp;P1;durP1;ratioP1;P2;durP2;ratioP2
1785;SDS011;890;48.158;11.540;2023-02-01T00:02:08;4.43;;;3.77;;
1785;SDS011;890;48.158;11.540;2023-02-01T00:04:34;4.70;;;4.20;;
1785;SDS011;890;48.158;11.540;2023-02-01T00:06:59;3.63;;;3.27;;
1785;SDS011;890;48.158;11.540;2023-02-01T00:09:26;4.57;;;3.43;;
1785;SDS011;890;48.158;11.540;2023-02-01T00:11:51;6.20;;;3.67;;
1785;SDS011;890;48.158;11.540;2023-02-01T00:14:17;4.60;;;3.90;;
1785;SDS011;890;48.158;11.540;2023-02-01T00:16:43;4.07;;;3.67;;
1785;SDS011;890;48.158;11.540;2023-02-01T00:19:13;7.33;;;3.97;;
1785;SDS011;890;48.158;11.540;2023-02-01T00:21:39;4.40;;;3.40;;
1785;SDS011;890;48.158;11.540;2023-02-01T00:24:05;6.23;;;3.97;;
1785;SDS011;890;48.158;11.540;2023-02-01T00:26:32;3.57;;;3.27;;
1785;SDS011;890;48.158;11.540;2023-02-01T00:29:00;4.07;;;3.67;;
1785;SDS011;890;48.158;11.540;2023-02-01T00:31:26;4.23;;;3.83;;
1785;SDS011;890;48.158;11.540;2023-02-01T00:33:52;4.10;;;3.37;;
1785;SDS011;890;48.158;11.540;2023-02-01T00:36:17;4.03;;;3.53;;
1785;SDS011;890;48.158;11.540;2023-02-01T00:38:43;4.40;;;3.90;;
1785;SDS011;890;48.158;11.540;2023-02-01T00:41:13;3.90;;;3.33;;
1785;SDS011;890;48.158;11.540;2023-02-01T00:43:40;4.30;;;3.90;;
1785;SDS011;890;48.158;11.540;2023-02-01T00:46:06;4.40;;;3.77;;
1785;SDS011;890;48.158;11.540;2023-02-01T00:48:32;6.10;;;3.90;;
1785;SDS011;890;48.158;11.540;2023-02-01T00:51:01;4.77;;;4.20;;
1785;SDS011;890;48.158;11.540;2023-02-01T00:53:32;4.70;;;4.03;;
1785;SDS011;890;48.158;11.540;2023-02-01T00:55:58;4.93;;;4.07;;
1785;SDS011;890;48.158;11.540;2023-02-01T00:58:24;5.57;;;4.40;;
1785;SDS011;890;48.158;11.540;2023-02-01T01:01:00;4.83;;;4.33;;
1785;SDS011;890;48.158;11.540;2023-02-01T01:03:29;5.07;;;4.23;;
1785;SDS011;890;48.158;11.540;2023-02-01T01:05:58;5.50;;;4.87;;
1785;SDS011;890;48.158;11.540;2023-02-01T01:08:24;6.57;;;4.57;;
1785;SDS011;890;48.158;11.540;2023-02-01T01:10:50;5.93;;;4.93;;
1785;SDS011;890;48.158;11.540;2023-02-01T01:13:15;6.70;;;4.90;;
1785;SDS011;890;48.158;11.540;2023-02-01T01:15:41;6.20;;;4.37;;
1785;SDS011;890;48.158;11.540;2023-02-01T01:18:07;6.90;;;5.03;;
1785;SDS011;890;48.158;11.540;2023-02-01T01:20:37;5.37;;;4.87;;
1785;SDS011;890;48.158;11.540;2023-02-01T01:23:04;5.37;;;4.80;;
1785;SDS011;890;48.158;11.540;2023-02-01T01:25:30;7.07;;;5.33;;
1785;SDS011;890;48.158;11.540;2023-02-01T01:27:56;5.97;;;5.33;;
1785;SDS011;890;48.158;11.540;2023-02-01T01:30:22;6.17;;;5.57;;
1785;SDS011;890;48.158;11.540;2023-02-01T01:32:47;5.93;;;5.33;;
1785;SDS011;890;48.158;11.540;2023-02-01T01:35:13;6.43;;;5.23;;
1785;SDS011;890;48.158;11.540;2023-02-01T01:37:39;5.60;;;5.10;;
1785;SDS011;890;48.158;11.540;2023-02-01T01:40:05;5.93;;;5.27;;
1785;SDS011;890;48.158;11.540;2023-02-01T01:42:39;6.40;;;5.43;;
1785;SDS011;890;48.158;11.540;2023-02-01T01:45:23;6.10;;;5.50;;
1785;SDS011;890;48.158;11.540;2023-02-01T01:47:55;7.97;;;5.63;;
1785;SDS011;890;48.158;11.540;2023-02-01T01:50:31;6.63;;;5.77;;
1785;SDS011;890;48.158;11.540;2023-02-01T01:53:02;7.47;;;5.80;;
1785;SDS011;890;48.158;11.540;2023-02-01T01:55:31;6.13;;;5.53;;
1785;SDS011;890;48.158;11.540;2023-02-01T01:58:00;6.20;;;5.20;;
1785;SDS011;890;48.158;11.540;2023-02-01T02:00:30;7.70;;;6.90;;
1785;SDS011;890;48.158;11.540;2023-02-01T02:02:58;6.50;;;5.80;;
1785;SDS011;890;48.158;11.540;2023-02-01T02:05:28;8.47;;;5.93;;
1785;SDS011;890;48.158;11.540;2023-02-01T02:07:56;10.20;;;7.23;;
1785;SDS011;890;48.158;11.540;2023-02-01T02:10:24;6.90;;;6.20;;
1785;SDS011;890;48.158;11.540;2023-02-01T02:13:10;9.10;;;8.00;;
1785;SDS011;890;48.158;11.540;2023-02-01T02:15:38;9.67;;;7.33;;
1785;SDS011;890;48.158;11.540;2023-02-01T02:18:32;8.03;;;7.00;;
1785;SDS011;890;48.158;11.540;2023-02-01T02:32:40;7.20;;;6.50;;
1785;SDS011;890;48.158;11.540;2023-02-01T02:38:44;7.07;;;6.30;;
1785;SDS011;890;48.158;11.540;2023-02-01T02:40:56;8.77;;;7.60;;
1785;SDS011;890;48.158;11.540;2023-02-01T02:43:46;7.93;;;6.40;;
1785;SDS011;890;48.158;11.540;2023-02-01T02:46:40;8.40;;;7.33;;
1785;SDS011;890;48.158;11.540;2023-02-01T02:49:38;6.93;;;6.23;;
1785;SDS011;890;48.158;11.540;2023-02-01T02:52:13;7.77;;;6.80;;
1785;SDS011;890;48.158;11.540;2023-02-01T02:55:12;6.97;;;6.27;;
1785;SDS011;890;48.158;11.540;2023-02-01T02:57:38;7.90;;;6.50;;
1785;SDS011;890;48.158;11.540;2023-02-01T03:00:27;7.00;;;6.30;;
1785;SDS011;890;48.158;11.540;2023-02-01T03:03:15;7.00;;;6.30;;
1785;SDS011;890;48.158;11.540;2023-02-01T03:05:59;7.70;;;6.07;;
1785;SDS011;890;48.158;11.540;2023-02-01T03:08:26;6.30;;;5.70;;
1785;SDS011;890;48.158;11.540;2023-02-01T03:13:24;9.10;;;5.67;;
1785;SDS011;890;48.158;11.540;2023-02-01T03:21:40;5.60;;;5.00;;
1785;SDS011;890;48.158;11.540;2023-02-01T03:24:11;6.07;;;5.40;;
1785;SDS011;890;48.158;11.540;2023-02-01T03:26:41;8.27;;;6.47;;
1785;SDS011;890;48.158;11.540;2023-02-01T03:29:12;7.00;;;5.30;;
1785;SDS011;890;48.158;11.540;2023-02-01T03:31:41;6.50;;;5.10;;
1785;SDS011;890;48.158;11.540;2023-02-01T03:34:07;5.50;;;4.67;;
1785;SDS011;890;48.158;11.540;2023-02-01T03:36:35;6.00;;;5.40;;
1785;SDS011;890;48.158;11.540;2023-02-01T03:39:53;6.37;;;5.50;;
1785;SDS011;890;48.158;11.540;2023-02-01T03:42:00;5.90;;;5.10;;
1785;SDS011;890;48.158;11.540;2023-02-01T03:44:32;5.90;;;5.10;;
1785;SDS011;890;48.158;11.540;2023-02-01T03:47:09;5.97;;;4.80;;
1785;SDS011;890;48.158;11.540;2023-02-01T03:49:40;5.40;;;4.90;;
1785;SDS011;890;48.158;11.540;2023-02-01T03:52:09;5.47;;;4.57;;
1785;SDS011;890;48.158;11.540;2023-02-01T03:54:39;6.90;;;6.13;;
1785;SDS011;890;48.158;11.540;2023-02-01T03:57:11;6.57;;;5.20;;
1785;SDS011;890;48.158;11.540;2023-02-01T03:59:41;7.30;;;5.40;;
1785;SDS011;890;48.158;11.540;2023-02-01T04:02:09;6.60;;;5.27;;
1785;SDS011;890;48.158;11.540;2023-02-01T04:04:35;5.70;;;5.10;;
1785;SDS011;890;48.158;11.540;2023-02-01T04:07:02;6.33;;;5.27;;
1785;SDS011;890;48.158;11.540;2023-02-01T04:09:28;6.50;;;5.27;;
1785;SDS011;890;48.158;11.540;2023-02-01T04:11:54;5.90;;;5.10;;
1785;SDS011;890;48.158;11.540;2023-02-01T04:14:19;4.97;;;4.53;;
1785;SDS011;890;48.158;11.540;2023-02-01T04:16:45;5.80;;;5.20;;
1785;SDS011;890;48.158;11.540;2023-02-01T04:19:10;6.43;;;5.83;;
1785;SDS011;890;48.158;11.540;2023-02-01T04:21:36;7.73;;;5.13;;
1785;SDS011;890;48.158;11.540;2023-02-01T04:24:02;7.00;;;5.10;;
1785;SDS011;890;48.158;11.540;2023-02-01T04:26:28;6.10;;;5.50;;
1785;SDS011;890;48.158;11.540;2023-02-01T04:28:54;5.57;;;5.03;;
1785;SDS011;890;48.158;11.540;2023-02-01T04:31:19;5.50;;;5.00;;
1785;SDS011;890;48.158;11.540;2023-02-01T04:33:50;6.93;;;5.50;;
1785;SDS011;890;48.158;11.540;2023-02-01T04:36:18;6.30;;;5.43;;
1785;SDS011;890;48.158;11.540;2023-02-01T04:38:48;5.67;;;5.07;;
1785;SDS011;890;48.158;11.540;2023-02-01T04:41:16;5.57;;;5.07;;
1785;SDS011;890;48.158;11.540;2023-02-01T04:43:47;5.93;;;5.33;;
1785;SDS011;890;48.158;11.540;2023-02-01T04:46:14;6.07;;;5.20;;
1785;SDS011;890;48.158;11.540;2023-02-01T04:48:40;7.00;;;5.50;;
1785;SDS011;890;48.158;11.540;2023-02-01T04:51:06;7.17;;;5.97;;
1785;SDS011;890;48.158;11.540;2023-02-01T04:53:32;5.53;;;5.03;;
1785;SDS011;890;48.158;11.540;2023-02-01T04:55:58;5.40;;;4.90;;
1785;SDS011;890;48.158;11.540;2023-02-01T04:58:23;6.67;;;5.50;;
1785;SDS011;890;48.158;11.540;2023-02-01T05:00:49;6.50;;;5.70;;
1785;SDS011;890;48.158;11.540;2023-02-01T05:03:16;6.30;;;5.70;;
1785;SDS011;890;48.158;11.540;2023-02-01T05:05:42;5.97;;;5.37;;
1785;SDS011;890;48.158;11.540;2023-02-01T05:08:07;7.33;;;6.07;;
1785;SDS011;890;48.158;11.540;2023-02-01T05:10:33;6.83;;;5.97;;
1785;SDS011;890;48.158;11.540;2023-02-01T05:12:59;7.50;;;6.10;;
1785;SDS011;890;48.158;11.540;2023-02-01T05:15:43;6.67;;;5.70;;
1785;SDS011;890;48.158;11.540;2023-02-01T05:18:11;7.30;;;6.17;;
1785;SDS011;890;48.158;11.540;2023-02-01T05:20:37;8.20;;;6.53;;
1785;SDS011;890;48.158;11.540;2023-02-01T05:23:02;5.90;;;5.30;;
1785;SDS011;890;48.158;11.540;2023-02-01T05:25:28;7.00;;;6.10;;
1785;SDS011;890;48.158;11.540;2023-02-01T05:27:54;8.57;;;5.90;;
1785;SDS011;890;48.158;11.540;2023-02-01T05:30:19;11.37;;;7.40;;
1785;SDS011;890;48.158;11.540;2023-02-01T05:32:45;7.10;;;6.40;;
1785;SDS011;890;48.158;11.540;2023-02-01T05:35:15;6.60;;;6.00;;
1785;SDS011;890;48.158;11.540;2023-02-01T05:37:40;7.13;;;5.70;;
1785;SDS011;890;48.158;11.540;2023-02-01T05:40:06;6.37;;;5.77;;
1785;SDS011;890;48.158;11.540;2023-02-01T05:42:32;7.73;;;6.63;;
1785;SDS011;890;48.158;11.540;2023-02-01T05:44:58;6.40;;;5.80;;
1785;SDS011;890;48.158;11.540;2023-02-01T05:47:23;6.60;;;5.90;;
1785;SDS011;890;48.158;11.540;2023-02-01T05:49:49;7.13;;;6.43;;
1785;SDS011;890;48.158;11.540;2023-02-01T05:52:15;6.67;;;5.97;;
1785;SDS011;890;48.158;11.540;2023-02-01T05:54:44;7.17;;;6.43;;
1785;SDS011;890;48.158;11.540;2023-02-01T05:57:11;6.43;;;5.83;;
1785;SDS011;890;48.158;11.540;2023-02-01T05:59:38;6.40;;;5.77;;
1785;SDS011;890;48.158;11.540;2023-02-01T06:02:06;6.53;;;5.83;;
1785;SDS011;890;48.158;11.540;2023-02-01T06:04:32;7.63;;;6.93;;
1785;SDS011;890;48.158;11.540;2023-02-01T06:06:58;6.50;;;5.80;;
1785;SDS011;890;48.158;11.540;2023-02-01T06:09:24;6.10;;;5.50;;
1785;SDS011;890;48.158;11.540;2023-02-01T06:11:49;6.17;;;5.53;;
1785;SDS011;890;48.158;11.540;2023-02-01T06:14:15;7.20;;;6.27;;
1785;SDS011;890;48.158;11.540;2023-02-01T06:16:40;7.10;;;6.40;;
1785;SDS011;890;48.158;11.540;2023-02-01T06:19:06;7.00;;;6.30;;
1785;SDS011;890;48.158;11.540;2023-02-01T06:21:32;7.07;;;6.37;;
1785;SDS011;890;48.158;11.540;2023-02-01T06:23:58;5.90;;;5.03;;
1785;SDS011;890;48.158;11.540;2023-02-01T06:26:24;6.23;;;5.63;;
1785;SDS011;890;48.158;11.540;2023-02-01T06:28:50;8.10;;;5.40;;
1785;SDS011;890;48.158;11.540;2023-02-01T06:31:16;6.30;;;5.70;;
1785;SDS011;890;48.158;11.540;2023-02-01T06:33:41;7.93;;;6.47;;
1785;SDS011;890;48.158;11.540;2023-02-01T06:36:09;6.53;;;5.80;;
1785;SDS011;890;48.158;11.540;2023-02-01T06:38:37;6.77;;;6.07;;
1785;SDS011;890;48.158;11.540;2023-02-01T06:41:03;6.10;;;5.50;;
1785;SDS011;890;48.158;11.540;2023-02-01T06:43:29;7.67;;;6.53;;
1785;SDS011;890;48.158;11.540;2023-02-01T06:46:02;7.70;;;6.10;;
1785;SDS011;890;48.158;11.540;2023-02-01T06:48:29;6.67;;;5.50;;
1785;SDS011;890;48.158;11.540;2023-02-01T06:50:56;8.30;;;6.10;;
1785;SDS011;890;48.158;11.540;2023-02-01T06:53:22;6.53;;;5.63;;
1785;SDS011;890;48.158;11.540;2023-02-01T06:55:52;6.00;;;5.30;;
1785;SDS011;890;48.158;11.540;2023-02-01T06:58:19;6.63;;;5.97;;
1785;SDS011;890;48.158;11.540;2023-02-01T07:00:44;5.87;;;5.30;;
1785;SDS011;890;48.158;11.540;2023-02-01T07:03:12;7.23;;;5.60;;
1785;SDS011;890;48.158;11.540;2023-02-01T07:05:38;8.13;;;5.60;;
1785;SDS011;890;48.158;11.540;2023-02-01T07:08:03;6.33;;;5.73;;
1785;SDS011;890;48.158;11.540;2023-02-01T07:10:29;7.30;;;5.43;;
1785;SDS011;890;48.158;11.540;2023-02-01T07:12:57;5.80;;;4.70;;
1785;SDS011;890;48.158;11.540;2023-02-01T07:15:23;6.83;;;5.47;;
1785;SDS011;890;48.158;11.540;2023-02-01T07:17:49;6.30;;;5.47;;
1785;SDS011;890;48.158;11.540;2023-02-01T07:20:15;5.90;;;5.30;;
1785;SDS011;890;48.158;11.540;2023-02-01T07:22:41;5.47;;;4.80;;
1785;SDS011;890;48.158;11.540;2023-02-01T07:25:07;8.17;;;4.67;;
1785;SDS011;890;48.158;11.540;2023-02-01T07:27:36;4.87;;;4.37;;
1785;SDS011;890;48.158;11.540;2023-02-01T07:30:02;5.47;;;4.73;;
1785;SDS011;890;48.158;11.540;2023-02-01T07:32:29;4.97;;;4.43;;
1785;SDS011;890;48.158;11.540;2023-02-01T07:34:55;5.33;;;4.60;;
1785;SDS011;890;48.158;11.540;2023-02-01T07:37:21;4.90;;;4.10;;
1785;SDS011;890;48.158;11.540;2023-02-01T07:39:48;4.57;;;4.00;;
1785;SDS011;890;48.158;11.540;2023-02-01T07:42:14;5.10;;;4.20;;
1785;SDS011;890;48.158;11.540;2023-02-01T07:44:40;8.33;;;4.40;;
1785;SDS011;890;48.158;11.540;2023-02-01T07:47:06;4.77;;;4.30;;
1785;SDS011;890;48.158;11.540;2023-02-01T07:49:31;5.20;;;4.70;;
1785;SDS011;890;48.158;11.540;2023-02-01T07:51:57;5.10;;;4.20;;
1785;SDS011;890;48.158;11.540;2023-02-01T07:54:23;5.10;;;4.20;;
1785;SDS011;890;48.158;11.540;2023-02-01T07:56:48;4.20;;;3.80;;
1785;SDS011;890;48.158;11.540;2023-02-01T07:59:14;4.43;;;4.07;;
1785;SDS011;890;48.158;11.540;2023-02-01T08:01:40;4.47;;;4.00;;
1785;SDS011;890;48.158;11.540;2023-02-01T08:04:07;4.60;;;4.07;;
1785;SDS011;890;48.158;11.540;2023-02-01T08:06:36;3.83;;;3.43;;
1785;SDS011;890;48.158;11.540;2023-02-01T08:09:02;4.00;;;3.60;;
1785;SDS011;890;48.158;11.540;2023-02-01T08:11:28;4.13;;;3.67;;
1785;SDS011;890;48.158;11.540;2023-02-01T08:13:54;3.60;;;3.27;;
1785;SDS011;890;48.158;11.540;2023-02-01T08:16:21;4.03;;;3.63;;
1785;SDS011;890;48.158;11.540;2023-02-01T08:18:48;4.00;;;3.60;;
1785;SDS011;890;48.158;11.540;2023-02-01T08:21:21;4.50;;;3.63;;
1785;SDS011;890;48.158;11.540;2023-02-01T08:23:53;3.83;;;3.43;;
1785;SDS011;890;48.158;11.540;2023-02-01T08:26:20;4.50;;;3.93;;
1785;SDS011;890;48.158;11.540;2023-02-01T08:28:48;4.87;;;3.57;;
1785;SDS011;890;48.158;11.540;2023-02-01T08:31:18;3.73;;;3.37;;
1785;SDS011;890;48.158;11.540;2023-02-01T08:33:48;3.80;;;3.40;;
1785;SDS011;890;48.158;11.540;2023-02-01T08:36:18;3.90;;;3.50;;
1785;SDS011;890;48.158;11.540;2023-02-01T08:38:44;3.90;;;3.47;;
1785;SDS011;890;48.158;11.540;2023-02-01T08:41:11;4.97;;;3.57;;
1785;SDS011;890;48.158;11.540;2023-02-01T08:43:40;3.90;;;3.50;;
1785;SDS011;890;48.158;11.540;2023-02-01T08:46:06;5.53;;;4.17;;
1785;SDS011;890;48.158;11.540;2023-02-01T08:48:33;5.50;;;3.80;;
1785;SDS011;890;48.158;11.540;2023-02-01T08:51:06;4.63;;;3.60;;
1785;SDS011;890;48.158;11.540;2023-02-01T08:53:34;4.00;;;3.47;;
1785;SDS011;890;48.158;11.540;2023-02-01T08:56:01;4.03;;;3.60;;
1785;SDS011;890;48.158;11.540;2023-02-01T08:58:27;3.80;;;3.40;;
1785;SDS011;890;48.158;11.540;2023-02-01T09:00:52;3.80;;;3.40;;
1785;SDS011;890;48.158;11.540;2023-02-01T09:03:18;4.77;;;3.23;;
1785;SDS011;890;48.158;11.540;2023-02-01T09:05:44;3.80;;;3.40;;
1785;SDS011;890;48.158;11.540;2023-02-01T09:08:10;4.37;;;3.30;;
1785;SDS011;890;48.158;11.540;2023-02-01T09:10:39;3.67;;;3.33;;
1785;SDS011;890;48.158;11.540;2023-02-01T09:13:06;4.13;;;3.73;;
1785;SDS011;890;48.158;11.540;2023-02-01T09:15:32;4.80;;;3.70;;
1785;SDS011;890;48.158;11.540;2023-02-01T09:17:58;3.70;;;3.40;;
1785;SDS011;890;48.158;11.540;2023-02-01T09:20:24;4.10;;;3.50;;
1785;SDS011;890;48.158;11.540;2023-02-01T09:22:50;5.00;;;3.90;;
1785;SDS011;890;48.158;11.540;2023-02-01T09:25:18;4.70;;;3.70;;
1785;SDS011;890;48.158;11.540;2023-02-01T09:27:44;4.20;;;3.40;;
1785;SDS011;890;48.158;11.540;2023-02-01T09:30:10;3.97;;;3.30;;
1785;SDS011;890;48.158;11.540;2023-02-01T09:32:37;3.60;;;3.13;;
1785;SDS011;890;48.158;11.540;2023-02-01T09:35:02;7.03;;;4.00;;
1785;SDS011;890;48.158;11.540;2023-02-01T09:37:28;3.23;;;2.93;;
1785;SDS011;890;48.158;11.540;2023-02-01T09:39:54;4.17;;;3.40;;
1785;SDS011;890;48.158;11.540;2023-02-01T09:47:44;2.83;;;2.53;;
1785;SDS011;890;48.158;11.540;2023-02-01T09:50:17;5.93;;;3.70;;
1785;SDS011;890;48.158;11.540;2023-02-01T09:53:00;5.27;;;3.40;;
1785;SDS011;890;48.158;11.540;2023-02-01T09:58:47;3.43;;;3.10;;
1785;SDS011;890;48.158;11.540;2023-02-01T10:01:01;4.23;;;3.57;;
1785;SDS011;890;48.158;11.540;2023-02-01T10:03:29;3.20;;;2.90;;
1785;SDS011;890;48.158;11.540;2023-02-01T10:06:04;3.80;;;3.20;;
1785;SDS011;890;48.158;11.540;2023-02-01T10:11:56;4.77;;;3.83;;
1785;SDS011;890;48.158;11.540;2023-02-01T10:23:01;4.10;;;3.30;;
1785;SDS011;890;48.158;11.540;2023-02-01T10:29:15;3.90;;;3.50;;
1785;SDS011;890;48.158;11.540;2023-02-01T10:31:44;3.60;;;3.20;;
1785;SDS011;890;48.158;11.540;2023-02-01T10:34:21;4.73;;;4.10;;
1785;SDS011;890;48.158;11.540;2023-02-01T10:36:55;3.50;;;3.20;;
1785;SDS011;890;48.158;11.540;2023-02-01T10:39:24;4.63;;;3.20;;
1785;SDS011;890;48.158;11.540;2023-02-01T10:41:50;5.13;;;3.20;;
1785;SDS011;890;48.158;11.540;2023-02-01T10:44:17;4.27;;;3.13;;
1785;SDS011;890;48.158;11.540;2023-02-01T10:46:45;4.53;;;3.67;;
1785;SDS011;890;48.158;11.540;2023-02-01T10:49:13;3.73;;;3.00;;
1785;SDS011;890;48.158;11.540;2023-02-01T10:54:41;4.80;;;3.63;;
1785;SDS011;890;48.158;11.540;2023-02-01T10:57:09;5.60;;;3.03;;
1785;SDS011;890;48.158;11.540;2023-02-01T10:59:36;3.63;;;3.03;;
1785;SDS011;890;48.158;11.540;2023-02-01T11:02:05;4.50;;;3.27;;
1785;SDS011;890;48.158;11.540;2023-02-01T11:04:44;5.33;;;3.70;;
1785;SDS011;890;48.158;11.540;2023-02-01T11:09:48;3.80;;;3.50;;
1785;SDS011;890;48.158;11.540;2023-02-01T11:12:22;6.50;;;3.80;;
1785;SDS011;890;48.158;11.540;2023-02-01T11:14:56;5.10;;;3.77;;
1785;SDS011;890;48.158;11.540;2023-02-01T11:17:45;4.37;;;3.90;;
1785;SDS011;890;48.158;11.540;2023-02-01T11:20:16;4.60;;;3.73;;
1785;SDS011;890;48.158;11.540;2023-02-01T11:22:48;4.53;;;3.37;;
1785;SDS011;890;48.158;11.540;2023-02-01T11:25:19;4.13;;;3.73;;
1785;SDS011;890;48.158;11.540;2023-02-01T11:27:46;5.93;;;4.00;;
1785;SDS011;890;48.158;11.540;2023-02-01T11:30:18;4.67;;;3.57;;
1785;SDS011;890;48.158;11.540;2023-02-01T11:32:50;4.80;;;3.60;;
1785;SDS011;890;48.158;11.540;2023-02-01T11:35:17;4.73;;;3.60;;
1785;SDS011;890;48.158;11.540;2023-02-01T11:37:48;5.70;;;3.90;;
1785;SDS011;890;48.158;11.540;2023-02-01T11:42:53;5.03;;;4.50;;
1785;SDS011;890;48.158;11.540;2023-02-01T11:45:24;4.10;;;3.50;;
1785;SDS011;890;48.158;11.540;2023-02-01T11:47:52;5.63;;;3.90;;
1785;SDS011;890;48.158;11.540;2023-02-01T11:50:23;4.83;;;3.90;;
1785;SDS011;890;48.158;11.540;2023-02-01T11:56:11;4.80;;;4.27;;
1785;SDS011;890;48.158;11.540;2023-02-01T12:07:06;5.10;;;4.47;;
1785;SDS011;890;48.158;11.540;2023-02-01T12:20:46;5.20;;;4.20;;
1785;SDS011;890;48.158;11.540;2023-02-01T12:23:33;5.10;;;4.60;;
1785;SDS011;890;48.158;11.540;2023-02-01T12:32:02;5.33;;;4.67;;
1785;SDS011;890;48.158;11.540;2023-02-01T12:42:54;5.90;;;4.53;;
1785;SDS011;890;48.158;11.540;2023-02-01T12:45:38;4.87;;;4.10;;
1785;SDS011;890;48.158;11.540;2023-02-01T12:48:43;4.83;;;4.10;;
1785;SDS011;890;48.158;11.540;2023-02-01T12:51:04;6.10;;;4.33;;
1785;SDS011;890;48.158;11.540;2023-02-01T12:53:50;7.60;;;4.10;;
1785;SDS011;890;48.158;11.540;2023-02-01T12:56:29;5.07;;;4.63;;
1785;SDS011;890;48.158;11.540;2023-02-01T12:59:08;6.20;;;4.13;;
1785;SDS011;890;48.158;11.540;2023-02-01T13:02:19;5.10;;;3.97;;
1785;SDS011;890;48.158;11.540;2023-02-01T13:08:10;6.87;;;3.87;;
1785;SDS011;890;48.158;11.540;2023-02-01T13:15:46;6.53;;;4.10;;
1785;SDS011;890;48.158;11.540;2023-02-01T13:18:39;5.10;;;4.30;;
1785;SDS011;890;48.158;11.540;2023-02-01T13:21:12;4.13;;;3.73;;
1785;SDS011;890;48.158;11.540;2023-02-01T13:23:54;4.20;;;3.73;;
1785;SDS011;890;48.158;11.540;2023-02-01T13:26:20;4.10;;;3.70;;
1785;SDS011;890;48.158;11.540;2023-02-01T13:29:06;5.67;;;4.30;;
1785;SDS011;890;48.158;11.540;2023-02-01T13:34:31;5.20;;;3.93;;
1785;SDS011;890;48.158;11.540;2023-02-01T13:40:35;7.93;;;4.00;;
1785;SDS011;890;48.158;11.540;2023-02-01T13:43:23;5.43;;;4.30;;
1785;SDS011;890;48.158;11.540;2023-02-01T13:45:55;4.67;;;4.07;;
1785;SDS011;890;48.158;11.540;2023-02-01T13:51:36;5.10;;;3.80;;
1785;SDS011;890;48.158;11.540;2023-02-01T13:54:06;5.10;;;3.90;;
1785;SDS011;890;48.158;11.540;2023-02-01T13:56:48;4.47;;;3.70;;
1785;SDS011;890;48.158;11.540;2023-02-01T14:05:10;4.97;;;4.47;;
1785;SDS011;890;48.158;11.540;2023-02-01T14:18:56;6.80;;;3.93;;
1785;SDS011;890;48.158;11.540;2023-02-01T14:26:51;5.30;;;4.00;;
1785;SDS011;890;48.158;11.540;2023-02-01T14:32:02;4.00;;;3.60;;
1785;SDS011;890;48.158;11.540;2023-02-01T14:34:48;4.53;;;3.90;;
1785;SDS011;890;48.158;11.540;2023-02-01T14:42:45;4.30;;;3.83;;
1785;SDS011;890;48.158;11.540;2023-02-01T14:47:48;4.53;;;3.40;;
1785;SDS011;890;48.158;11.540;2023-02-01T14:50:30;4.57;;;3.00;;
1785;SDS011;890;48.158;11.540;2023-02-01T15:06:42;8.13;;;3.43;;
1785;SDS011;890;48.158;11.540;2023-02-01T15:09:24;4.33;;;3.20;;
1785;SDS011;890;48.158;11.540;2023-02-01T15:12:04;4.93;;;3.00;;
1785;SDS011;890;48.158;11.540;2023-02-01T15:14:37;6.27;;;3.20;;
1785;SDS011;890;48.158;11.540;2023-02-01T15:17:03;4.37;;;3.33;;
1785;SDS011;890;48.158;11.540;2023-02-01T15:19:58;8.57;;;4.13;;
1785;SDS011;890;48.158;11.540;2023-02-01T15:22:42;6.73;;;3.30;;
1785;SDS011;890;48.158;11.540;2023-02-01T15:25:26;6.43;;;3.70;;
1785;SDS011;890;48.158;11.540;2023-02-01T15:27:59;3.50;;;3.20;;
1785;SDS011;890;48.158;11.540;2023-02-01T15:30:28;5.70;;;4.00;;
1785;SDS011;890;48.158;11.540;2023-02-01T15:33:17;5.43;;;3.80;;
1785;SDS011;890;48.158;11.540;2023-02-01T15:36:26;7.50;;;3.80;;
1785;SDS011;890;48.158;11.540;2023-02-01T15:38:42;5.07;;;3.80;;
1785;SDS011;890;48.158;11.540;2023-02-01T15:41:13;7.27;;;3.27;;
1785;SDS011;890;48.158;11.540;2023-02-01T15:46:35;4.57;;;3.20;;
1785;SDS011;890;48.158;11.540;2023-02-01T15:49:03;5.30;;;3.10;;
1785;SDS011;890;48.158;11.540;2023-02-01T15:51:43;3.37;;;2.60;;
1785;SDS011;890;48.158;11.540;2023-02-01T15:54:17;7.80;;;3.40;;
1785;SDS011;890;48.158;11.540;2023-02-01T15:57:03;4.57;;;3.50;;
1785;SDS011;890;48.158;11.540;2023-02-01T16:00:04;4.33;;;3.43;;
1785;SDS011;890;48.158;11.540;2023-02-01T16:05:31;5.50;;;2.90;;
1785;SDS011;890;48.158;11.540;2023-02-01T16:08:10;6.03;;;3.67;;
1785;SDS011;890;48.158;11.540;2023-02-01T16:10:53;3.53;;;3.23;;
1785;SDS011;890;48.158;11.540;2023-02-01T16:13:26;5.20;;;3.50;;
1785;SDS011;890;48.158;11.540;2023-02-01T16:15:52;4.67;;;3.80;;
1785;SDS011;890;48.158;11.540;2023-02-01T16:18:18;3.90;;;3.00;;
1785;SDS011;890;48.158;11.540;2023-02-01T16:20:44;6.03;;;3.70;;
1785;SDS011;890;48.158;11.540;2023-02-01T16:23:11;5.00;;;3.30;;
1785;SDS011;890;48.158;11.540;2023-02-01T16:25:37;4.13;;;2.70;;
1785;SDS011;890;48.158;11.540;2023-02-01T16:28:04;7.13;;;3.00;;
1785;SDS011;890;48.158;11.540;2023-02-01T16:30:30;4.20;;;3.33;;
1785;SDS011;890;48.158;11.540;2023-02-01T16:32:57;4.60;;;2.90;;
1785;SDS011;890;48.158;11.540;2023-02-01T16:35:28;5.77;;;3.17;;
1785;SDS011;890;48.158;11.540;2023-02-01T16:38:21;3.90;;;3.10;;
1785;SDS011;890;48.158;11.540;2023-02-01T16:40:47;6.53;;;3.50;;
1785;SDS011;890;48.158;11.540;2023-02-01T16:43:21;7.13;;;5.13;;
1785;SDS011;890;48.158;11.540;2023-02-01T16:45:48;4.50;;;2.90;;
1785;SDS011;890;48.158;11.540;2023-02-01T16:48:24;3.80;;;2.73;;
1785;SDS011;890;48.158;11.540;2023-02-01T16:50:53;4.67;;;3.00;;
1785;SDS011;890;48.158;11.540;2023-02-01T16:53:21;6.57;;;3.20;;
1785;SDS011;890;48.158;11.540;2023-02-01T16:55:48;6.60;;;4.20;;
1785;SDS011;890;48.158;11.540;2023-02-01T16:58:15;7.80;;;4.10;;
1785;SDS011;890;48.158;11.540;2023-02-01T17:00:41;6.70;;;3.70;;
1785;SDS011;890;48.158;11.540;2023-02-01T17:03:09;7.60;;;3.87;;
1785;SDS011;890;48.158;11.540;2023-02-01T17:05:42;6.80;;;4.00;;
1785;SDS011;890;48.158;11.540;2023-02-01T17:08:11;5.10;;;3.70;;
1785;SDS011;890;48.158;11.540;2023-02-01T17:10:40;7.10;;;3.60;;
1785;SDS011;890;48.158;11.540;2023-02-01T17:13:08;4.87;;;3.57;;
1785;SDS011;890;48.158;11.540;2023-02-01T17:15:37;4.50;;;3.00;;
1785;SDS011;890;48.158;11.540;2023-02-01T17:18:03;5.43;;;3.40;;
1785;SDS011;890;48.158;11.540;2023-02-01T17:20:31;8.50;;;3.83;;
1785;SDS011;890;48.158;11.540;2023-02-01T17:22:57;8.00;;;3.80;;
1785;SDS011;890;48.158;11.540;2023-02-01T17:25:23;7.60;;;3.70;;
1785;SDS011;890;48.158;11.540;2023-02-01T17:27:51;6.97;;;3.10;;
1785;SDS011;890;48.158;11.540;2023-02-01T17:30:16;4.37;;;3.20;;
1785;SDS011;890;48.158;11.540;2023-02-01T17:32:42;3.80;;;3.17;;
1785;SDS011;890;48.158;11.540;2023-02-01T17:35:19;6.63;;;3.60;;
1785;SDS011;890;48.158;11.540;2023-02-01T17:37:46;8.70;;;3.30;;
1785;SDS011;890;48.158;11.540;2023-02-01T17:40:12;7.60;;;3.50;;
1785;SDS011;890;48.158;11.540;2023-02-01T17:42:38;6.77;;;4.57;;
1785;SDS011;890;48.158;11.540;2023-02-01T17:45:13;10.47;;;4.20;;
1785;SDS011;890;48.158;11.540;2023-02-01T17:47:45;7.50;;;4.93;;
1785;SDS011;890;48.158;11.540;2023-02-01T17:50:11;5.00;;;3.90;;
1785;SDS011;890;48.158;11.540;2023-02-01T17:52:38;6.17;;;3.10;;
1785;SDS011;890;48.158;11.540;2023-02-01T17:55:23;5.40;;;3.67;;
1785;SDS011;890;48.158;11.540;2023-02-01T17:57:49;4.30;;;3.00;;
1785;SDS011;890;48.158;11.540;2023-02-01T18:00:15;4.50;;;3.63;;
1785;SDS011;890;48.158;11.540;2023-02-01T18:02:42;10.23;;;4.23;;
1785;SDS011;890;48.158;11.540;2023-02-01T18:05:16;6.60;;;3.57;;
1785;SDS011;890;48.158;11.540;2023-02-01T18:07:46;4.97;;;3.40;;
1785;SDS011;890;48.158;11.540;2023-02-01T18:10:12;6.80;;;3.40;;
1785;SDS011;890;48.158;11.540;2023-02-01T18:12:37;3.83;;;3.20;;
1785;SDS011;890;48.158;11.540;2023-02-01T18:17:43;6.03;;;3.50;;
1785;SDS011;890;48.158;11.540;2023-02-01T18:20:16;5.53;;;3.60;;